sensor_id;sensor_type;location;lat;lon;timestamp;pressure;altitude;pressure_sealevel;temperature;humidity
61119;BME280;51448;51.660;5.824;2023-04-25T00:02:08;100949.66;;;5.70;100.00
61119;BME280;51448;51.660;5.824;2023-04-25T00:04:36;100955.72;;;5.72;100.00
61119;BME280;51448;51.660;5.824;2023-04-25T00:07:05;100953.13;;;5.72;100.00
61119;BME280;51448;51.660;5.824;2023-04-25T00:09:33;100963.53;;;5.74;100.00
61119;BME280;51448;51.660;5.824;2023-04-25T00:12:01;100960.06;;;5.73;100.00
61119;BME280;51448;51.660;5.824;2023-04-25T00:14:29;100957.44;;;5.75;100.00
61119;BME280;51448;51.660;5.824;2023-04-25T00:16:57;100961.78;;;5.77;100.00
61119;BME280;51448;51.660;5.824;2023-04-25T00:19:26;100967.84;;;5.78;100.00
61119;BME280;51448;51.660;5.824;2023-04-25T00:21:55;100969.59;;;5.77;100.00
61119;BME280;51448;51.660;5.824;2023-04-25T00:24:23;100967.84;;;5.79;100.00
61119;BME280;51448;51.660;5.824;2023-04-25T00:26:50;100974.81;;;5.77;100.00
61119;BME280;51448;51.660;5.824;2023-04-25T00:29:18;100973.06;;;5.78;100.00
61119;BME280;51448;51.660;5.824;2023-04-25T00:31:45;100973.97;;;5.77;100.00
61119;BME280;51448;51.660;5.824;2023-04-25T00:34:13;100975.72;;;5.76;100.00
61119;BME280;51448;51.660;5.824;2023-04-25T00:36:41;100973.09;;;5.75;100.00
61119;BME280;51448;51.660;5.824;2023-04-25T00:39:09;100978.31;;;5.76;100.00
61119;BME280;51448;51.660;5.824;2023-04-25T00:41:36;100978.28;;;5.78;100.00
61119;BME280;51448;51.660;5.824;2023-04-25T00:44:05;100973.97;;;5.78;100.00
61119;BME280;51448;51.660;5.824;2023-04-25T00:46:35;100973.94;;;5.80;100.00
61119;BME280;51448;51.660;5.824;2023-04-25T00:49:03;100974.81;;;5.80;100.00
61119;BME280;51448;51.660;5.824;2023-04-25T00:51:32;100974.78;;;5.82;100.00
61119;BME280;51448;51.660;5.824;2023-04-25T00:54:01;100971.31;;;5.84;100.00
61119;BME280;51448;51.660;5.824;2023-04-25T00:56:29;100974.78;;;5.87;100.00
61119;BME280;51448;51.660;5.824;2023-04-25T00:58:57;100976.50;;;5.88;100.00
61119;BME280;51448;51.660;5.824;2023-04-25T01:01:25;100976.50;;;5.89;100.00
61119;BME280;51448;51.660;5.824;2023-04-25T01:03:53;100978.22;;;5.90;100.00
61119;BME280;51448;51.660;5.824;2023-04-25T01:06:22;100973.00;;;5.90;100.00
61119;BME280;51448;51.660;5.824;2023-04-25T01:08:51;100969.53;;;5.91;100.00
61119;BME280;51448;51.660;5.824;2023-04-25T01:11:20;100974.75;;;5.91;100.00
61119;BME280;51448;51.660;5.824;2023-04-25T01:13:47;100968.66;;;5.91;100.00
61119;BME280;51448;51.660;5.824;2023-04-25T01:16:15;100972.13;;;5.90;100.00
61119;BME280;51448;51.660;5.824;2023-04-25T01:18:43;100971.28;;;5.89;100.00
61119;BME280;51448;51.660;5.824;2023-04-25T01:21:12;100980.84;;;5.89;100.00
61119;BME280;51448;51.660;5.824;2023-04-25T01:23:41;100977.41;;;5.87;100.00
61119;BME280;51448;51.660;5.824;2023-04-25T01:26:11;100977.41;;;5.87;100.00
61119;BME280;51448;51.660;5.824;2023-04-25T01:28:39;100977.41;;;5.85;100.00
61119;BME280;51448;51.660;5.824;2023-04-25T01:31:12;100980.88;;;5.84;100.00
61119;BME280;51448;51.660;5.824;2023-04-25T01:33:40;100990.44;;;5.82;100.00
61119;BME280;51448;51.660;5.824;2023-04-25T01:36:08;100986.97;;;5.80;100.00
61119;BME280;51448;51.660;5.824;2023-04-25T01:38:36;100991.34;;;5.78;100.00
61119;BME280;51448;51.660;5.824;2023-04-25T01:41:04;100992.25;;;5.74;100.00
61119;BME280;51448;51.660;5.824;2023-04-25T01:43:32;101001.84;;;5.70;100.00
61119;BME280;51448;51.660;5.824;2023-04-25T01:46:01;101006.22;;;5.65;100.00
61119;BME280;51448;51.660;5.824;2023-04-25T01:48:28;100994.91;;;5.61;100.00
61119;BME280;51448;51.660;5.824;2023-04-25T01:50:56;101006.25;;;5.59;100.00
61119;BME280;51448;51.660;5.824;2023-04-25T01:53:24;101006.25;;;5.54;100.00
61119;BME280;51448;51.660;5.824;2023-04-25T01:55:53;101001.94;;;5.50;100.00
61119;BME280;51448;51.660;5.824;2023-04-25T01:58:22;101001.06;;;5.48;100.00
61119;BME280;51448;51.660;5.824;2023-04-25T02:01:03;101009.75;;;5.47;100.00
61119;BME280;51448;51.660;5.824;2023-04-25T02:03:38;101005.44;;;5.44;100.00
61119;BME280;51448;51.660;5.824;2023-04-25T02:06:11;101008.91;;;5.45;100.00
61119;BME280;51448;51.660;5.824;2023-04-25T02:08:43;101011.50;;;5.45;100.00
61119;BME280;51448;51.660;5.824;2023-04-25T02:11:13;101008.91;;;5.45;100.00
61119;BME280;51448;51.660;5.824;2023-04-25T02:13:49;101014.13;;;5.45;100.00
61119;BME280;51448;51.660;5.824;2023-04-25T02:16:56;101006.31;;;5.43;100.00
61119;BME280;51448;51.660;5.824;2023-04-25T02:19:24;101013.25;;;5.43;100.00
61119;BME280;51448;51.660;5.824;2023-04-25T02:21:52;101012.41;;;5.42;100.00
61119;BME280;51448;51.660;5.824;2023-04-25T02:24:19;101008.06;;;5.40;100.00
61119;BME280;51448;51.660;5.824;2023-04-25T02:26:47;101016.75;;;5.39;100.00
61119;BME280;51448;51.660;5.824;2023-04-25T02:29:16;101011.53;;;5.39;100.00
61119;BME280;51448;51.660;5.824;2023-04-25T02:31:44;101012.41;;;5.36;100.00
61119;BME280;51448;51.660;5.824;2023-04-25T02:34:11;101020.28;;;5.33;100.00
61119;BME280;51448;51.660;5.824;2023-04-25T02:36:39;101017.66;;;5.30;100.00
61119;BME280;51448;51.660;5.824;2023-04-25T02:39:06;101023.75;;;5.28;100.00
61119;BME280;51448;51.660;5.824;2023-04-25T02:41:34;101018.53;;;5.24;100.00
61119;BME280;51448;51.660;5.824;2023-04-25T02:44:02;101015.06;;;5.22;100.00
61119;BME280;51448;51.660;5.824;2023-04-25T02:46:29;101022.03;;;5.20;100.00
61119;BME280;51448;51.660;5.824;2023-04-25T02:49:06;101021.19;;;5.15;100.00
61119;BME280;51448;51.660;5.824;2023-04-25T02:51:35;101020.31;;;5.13;100.00
61119;BME280;51448;51.660;5.824;2023-04-25T02:54:03;101031.63;;;5.11;100.00
61119;BME280;51448;51.660;5.824;2023-04-25T02:56:34;101022.97;;;5.01;100.00
61119;BME280;51448;51.660;5.824;2023-04-25T02:59:03;101030.78;;;4.98;100.00
61119;BME280;51448;51.660;5.824;2023-04-25T03:01:32;101023.84;;;4.98;100.00
61119;BME280;51448;51.660;5.824;2023-04-25T03:03:59;101031.66;;;4.97;100.00
61119;BME280;51448;51.660;5.824;2023-04-25T03:06:27;101027.31;;;4.94;100.00
61119;BME280;51448;51.660;5.824;2023-04-25T03:08:55;101031.66;;;4.91;100.00
61119;BME280;51448;51.660;5.824;2023-04-25T03:11:25;101030.81;;;4.89;100.00
61119;BME280;51448;51.660;5.824;2023-04-25T03:13:53;101034.28;;;4.84;100.00
61119;BME280;51448;51.660;5.824;2023-04-25T03:16:22;101031.66;;;4.83;100.00
61119;BME280;51448;51.660;5.824;2023-04-25T03:18:49;101036.03;;;4.82;100.00
61119;BME280;51448;51.660;5.824;2023-04-25T03:21:18;101032.56;;;4.80;100.00
61119;BME280;51448;51.660;5.824;2023-04-25T03:23:45;101034.28;;;4.78;100.00
61119;BME280;51448;51.660;5.824;2023-04-25T03:26:13;101035.16;;;4.74;100.00
61119;BME280;51448;51.660;5.824;2023-04-25T03:28:41;101036.91;;;4.72;100.00
61119;BME280;51448;51.660;5.824;2023-04-25T03:31:09;101037.78;;;4.70;100.00
61119;BME280;51448;51.660;5.824;2023-04-25T03:33:36;101034.31;;;4.68;100.00
61119;BME280;51448;51.660;5.824;2023-04-25T03:36:04;101038.66;;;4.64;100.00
61119;BME280;51448;51.660;5.824;2023-04-25T03:38:32;101037.78;;;4.60;100.00
61119;BME280;51448;51.660;5.824;2023-04-25T03:41:01;101034.28;;;4.58;100.00
61119;BME280;51448;51.660;5.824;2023-04-25T03:43:49;101036.91;;;4.55;100.00
61119;BME280;51448;51.660;5.824;2023-04-25T03:46:17;101044.72;;;4.54;100.00
61119;BME280;51448;51.660;5.824;2023-04-25T03:48:46;101044.72;;;4.54;100.00
61119;BME280;51448;51.660;5.824;2023-04-25T03:51:19;101045.59;;;4.56;100.00
61119;BME280;51448;51.660;5.824;2023-04-25T03:53:47;101046.47;;;4.58;100.00
61119;BME280;51448;51.660;5.824;2023-04-25T03:56:18;101047.31;;;4.57;100.00
61119;BME280;51448;51.660;5.824;2023-04-25T03:58:48;101048.19;;;4.59;100.00
61119;BME280;51448;51.660;5.824;2023-04-25T04:01:17;101043.88;;;4.59;100.00
61119;BME280;51448;51.660;5.824;2023-04-25T04:03:45;101047.34;;;4.60;100.00
61119;BME280;51448;51.660;5.824;2023-04-25T04:06:13;101049.06;;;4.61;100.00
61119;BME280;51448;51.660;5.824;2023-04-25T04:08:46;101046.44;;;4.61;100.00
61119;BME280;51448;51.660;5.824;2023-04-25T04:11:14;101050.81;;;4.62;100.00
61119;BME280;51448;51.660;5.824;2023-04-25T04:13:42;101052.56;;;4.61;100.00
61119;BME280;51448;51.660;5.824;2023-04-25T04:16:09;101049.94;;;4.61;100.00
61119;BME280;51448;51.660;5.824;2023-04-25T04:18:37;101061.22;;;4.62;100.00
61119;BME280;51448;51.660;5.824;2023-04-25T04:21:05;101065.56;;;4.61;100.00
61119;BME280;51448;51.660;5.824;2023-04-25T04:23:35;101061.22;;;4.62;100.00
61119;BME280;51448;51.660;5.824;2023-04-25T04:26:07;101056.00;;;4.62;100.00
61119;BME280;51448;51.660;5.824;2023-04-25T04:28:54;101066.44;;;4.60;100.00
61119;BME280;51448;51.660;5.824;2023-04-25T04:31:35;101074.22;;;4.59;100.00
61119;BME280;51448;51.660;5.824;2023-04-25T04:34:03;101062.97;;;4.60;100.00
61119;BME280;51448;51.660;5.824;2023-04-25T04:36:33;101065.56;;;4.61;100.00
61119;BME280;51448;51.660;5.824;2023-04-25T04:39:01;101071.63;;;4.60;100.00
61119;BME280;51448;51.660;5.824;2023-04-25T04:41:37;101079.44;;;4.60;100.00
61119;BME280;51448;51.660;5.824;2023-04-25T04:44:11;101081.19;;;4.58;100.00
61119;BME280;51448;51.660;5.824;2023-04-25T04:46:49;101082.94;;;4.58;100.00
61119;BME280;51448;51.660;5.824;2023-04-25T04:49:35;101085.53;;;4.56;100.00
61119;BME280;51448;51.660;5.824;2023-04-25T04:52:19;101084.66;;;4.56;100.00
61119;BME280;51448;51.660;5.824;2023-04-25T04:55:16;101099.44;;;4.55;100.00
61119;BME280;51448;51.660;5.824;2023-04-25T04:57:52;101095.94;;;4.56;100.00
61119;BME280;51448;51.660;5.824;2023-04-25T05:00:43;101098.56;;;4.59;100.00
61119;BME280;51448;51.660;5.824;2023-04-25T05:03:29;101111.59;;;4.64;100.00
61119;BME280;51448;51.660;5.824;2023-04-25T05:06:25;101108.97;;;4.69;100.00
61119;BME280;51448;51.660;5.824;2023-04-25T05:09:12;101107.25;;;4.74;100.00
61119;BME280;51448;51.660;5.824;2023-04-25T05:11:58;101109.88;;;4.80;100.00
61119;BME280;51448;51.660;5.824;2023-04-25T05:14:34;101108.97;;;4.86;100.00
61119;BME280;51448;51.660;5.824;2023-04-25T05:17:25;101123.75;;;4.91;100.00
61119;BME280;51448;51.660;5.824;2023-04-25T05:20:19;101134.19;;;4.96;100.00
61119;BME280;51448;51.660;5.824;2023-04-25T05:22:49;101135.06;;;4.99;100.00
61119;BME280;51448;51.660;5.824;2023-04-25T05:25:38;101131.59;;;5.05;100.00
61119;BME280;51448;51.660;5.824;2023-04-25T05:28:31;101142.88;;;5.09;100.00
61119;BME280;51448;51.660;5.824;2023-04-25T05:31:17;101147.19;;;5.14;100.00
61119;BME280;51448;51.660;5.824;2023-04-25T05:33:57;101149.81;;;5.20;100.00
61119;BME280;51448;51.660;5.824;2023-04-25T05:36:33;101149.78;;;5.27;100.00
61119;BME280;51448;51.660;5.824;2023-04-25T05:39:00;101148.94;;;5.32;100.00
61119;BME280;51448;51.660;5.824;2023-04-25T05:41:51;101150.66;;;5.38;100.00
61119;BME280;51448;51.660;5.824;2023-04-25T05:44:38;101153.28;;;5.44;100.00
61119;BME280;51448;51.660;5.824;2023-04-25T05:47:26;101153.25;;;5.50;100.00
61119;BME280;51448;51.660;5.824;2023-04-25T05:50:01;101162.78;;;5.57;100.00
61119;BME280;51448;51.660;5.824;2023-04-25T05:52:52;101170.59;;;5.63;100.00
61119;BME280;51448;51.660;5.824;2023-04-25T05:55:31;101167.97;;;5.70;100.00
61119;BME280;51448;51.660;5.824;2023-04-25T05:58:02;101164.50;;;5.77;100.00
61119;BME280;51448;51.660;5.824;2023-04-25T06:00:29;101173.16;;;5.82;100.00
61119;BME280;51448;51.660;5.824;2023-04-25T06:02:57;101168.81;;;5.89;100.00
61119;BME280;51448;51.660;5.824;2023-04-25T06:05:25;101169.69;;;5.95;100.00
61119;BME280;51448;51.660;5.824;2023-04-25T06:07:53;101171.41;;;6.01;100.00
61119;BME280;51448;51.660;5.824;2023-04-25T06:10:23;101178.34;;;6.10;100.00
61119;BME280;51448;51.660;5.824;2023-04-25T06:12:51;101176.56;;;6.16;100.00
61119;BME280;51448;51.660;5.824;2023-04-25T06:15:21;101176.53;;;6.24;100.00
61119;BME280;51448;51.660;5.824;2023-04-25T06:17:55;101178.22;;;6.31;100.00
61119;BME280;51448;51.660;5.824;2023-04-25T06:20:23;101173.88;;;6.38;100.00
61119;BME280;51448;51.660;5.824;2023-04-25T06:22:54;101182.53;;;6.46;100.00
61119;BME280;51448;51.660;5.824;2023-04-25T06:25:30;101184.22;;;6.52;100.00
61119;BME280;51448;51.660;5.824;2023-04-25T06:27:59;101181.56;;;6.58;100.00
61119;BME280;51448;51.660;5.824;2023-04-25T06:30:27;101180.66;;;6.65;100.00
61119;BME280;51448;51.660;5.824;2023-04-25T06:33:02;101190.22;;;6.71;100.00
61119;BME280;51448;51.660;5.824;2023-04-25T06:35:31;101188.44;;;6.74;100.00
61119;BME280;51448;51.660;5.824;2023-04-25T06:37:59;101188.44;;;6.77;100.00
61119;BME280;51448;51.660;5.824;2023-04-25T06:40:27;101198.84;;;6.80;99.93
61119;BME280;51448;51.660;5.824;2023-04-25T06:42:55;101192.75;;;6.81;99.69
61119;BME280;51448;51.660;5.824;2023-04-25T06:45:46;101199.66;;;6.93;99.26
61119;BME280;51448;51.660;5.824;2023-04-25T06:48:15;101201.31;;;7.03;98.74
61119;BME280;51448;51.660;5.824;2023-04-25T06:50:43;101204.75;;;7.12;97.93
61119;BME280;51448;51.660;5.824;2023-04-25T06:53:12;101206.38;;;7.27;97.48
61119;BME280;51448;51.660;5.824;2023-04-25T06:55:42;101202.75;;;7.40;96.63
61119;BME280;51448;51.660;5.824;2023-04-25T06:58:17;101205.19;;;7.58;95.85
61119;BME280;51448;51.660;5.824;2023-04-25T07:00:54;101202.38;;;7.77;95.56
61119;BME280;51448;51.660;5.824;2023-04-25T07:03:24;101213.56;;;7.94;94.98
61119;BME280;51448;51.660;5.824;2023-04-25T07:05:57;101216.97;;;8.02;94.49
61119;BME280;51448;51.660;5.824;2023-04-25T07:08:25;101223.84;;;8.10;92.86
61119;BME280;51448;51.660;5.824;2023-04-25T07:10:53;101219.44;;;8.16;92.76
61119;BME280;51448;51.660;5.824;2023-04-25T07:13:20;101229.78;;;8.24;91.59
61119;BME280;51448;51.660;5.824;2023-04-25T07:15:48;101223.69;;;8.25;91.19
61119;BME280;51448;51.660;5.824;2023-04-25T07:18:18;101236.84;;;8.20;90.15
61119;BME280;51448;51.660;5.824;2023-04-25T07:20:46;101241.19;;;8.23;89.79
61119;BME280;51448;51.660;5.824;2023-04-25T07:23:14;101241.13;;;8.27;89.94
61119;BME280;51448;51.660;5.824;2023-04-25T07:25:42;101242.81;;;8.33;90.06
61119;BME280;51448;51.660;5.824;2023-04-25T07:28:10;101250.50;;;8.49;89.88
61119;BME280;51448;51.660;5.824;2023-04-25T07:30:38;101248.53;;;8.64;89.66
61119;BME280;51448;51.660;5.824;2023-04-25T07:33:05;101256.31;;;8.71;88.73
61119;BME280;51448;51.660;5.824;2023-04-25T07:35:33;101249.22;;;8.77;88.15
61119;BME280;51448;51.660;5.824;2023-04-25T07:38:02;101249.97;;;8.87;88.06
61119;BME280;51448;51.660;5.824;2023-04-25T07:40:30;101248.03;;;9.00;87.56
61119;BME280;51448;51.660;5.824;2023-04-25T07:43:04;101256.63;;;9.11;86.88
61119;BME280;51448;51.660;5.824;2023-04-25T07:45:38;101261.59;;;9.30;86.75
61119;BME280;51448;51.660;5.824;2023-04-25T07:48:07;101256.03;;;9.48;86.09
61119;BME280;51448;51.660;5.824;2023-04-25T07:50:37;101263.53;;;9.70;85.18
61119;BME280;51448;51.660;5.824;2023-04-25T07:53:04;101263.09;;;9.94;84.98
61119;BME280;51448;51.660;5.824;2023-04-25T07:55:37;101266.41;;;10.05;84.04
61119;BME280;51448;51.660;5.824;2023-04-25T07:58:15;101280.50;;;10.01;83.54
61119;BME280;51448;51.660;5.824;2023-04-25T08:00:45;101287.63;;;9.95;83.05
61119;BME280;51448;51.660;5.824;2023-04-25T08:03:42;101277.47;;;9.75;82.34
61119;BME280;51448;51.660;5.824;2023-04-25T08:06:18;101287.34;;;9.60;83.01
61119;BME280;51448;51.660;5.824;2023-04-25T08:08:55;101291.97;;;9.46;82.77
61119;BME280;51448;51.660;5.824;2023-04-25T08:11:29;101298.22;;;9.37;83.25
61119;BME280;51448;51.660;5.824;2023-04-25T08:13:57;101295.72;;;9.30;84.08
61119;BME280;51448;51.660;5.824;2023-04-25T08:16:26;101303.59;;;9.28;83.33
61119;BME280;51448;51.660;5.824;2023-04-25T08:18:54;101298.31;;;9.31;82.30
61119;BME280;51448;51.660;5.824;2023-04-25T08:21:22;101299.97;;;9.37;82.24
61119;BME280;51448;51.660;5.824;2023-04-25T08:23:50;101309.22;;;9.59;81.40
61119;BME280;51448;51.660;5.824;2023-04-25T08:26:28;101311.44;;;9.85;80.62
61119;BME280;51448;51.660;5.824;2023-04-25T08:28:57;101315.38;;;10.10;78.56
61119;BME280;51448;51.660;5.824;2023-04-25T08:31:25;101308.03;;;10.30;77.71
61119;BME280;51448;51.660;5.824;2023-04-25T08:33:59;101314.63;;;10.50;76.84
61119;BME280;51448;51.660;5.824;2023-04-25T08:36:32;101317.09;;;10.59;76.76
61119;BME280;51448;51.660;5.824;2023-04-25T08:39:17;101316.06;;;10.66;75.81
61119;BME280;51448;51.660;5.824;2023-04-25T08:42:05;101320.88;;;10.87;76.53
61119;BME280;51448;51.660;5.824;2023-04-25T08:44:36;101325.75;;;11.06;75.62
61119;BME280;51448;51.660;5.824;2023-04-25T08:47:04;101334.25;;;11.17;71.76
61119;BME280;51448;51.660;5.824;2023-04-25T08:49:39;101324.81;;;11.07;70.58
61119;BME280;51448;51.660;5.824;2023-04-25T08:52:14;101332.81;;;11.04;70.49
61119;BME280;51448;51.660;5.824;2023-04-25T08:54:46;101330.56;;;10.85;70.55
61119;BME280;51448;51.660;5.824;2023-04-25T08:57:17;101334.34;;;10.72;70.67
61119;BME280;51448;51.660;5.824;2023-04-25T08:59:46;101325.44;;;10.79;71.55
61119;BME280;51448;51.660;5.824;2023-04-25T09:02:15;101338.31;;;10.93;71.69
61119;BME280;51448;51.660;5.824;2023-04-25T09:04:49;101340.75;;;11.01;70.47
61119;BME280;51448;51.660;5.824;2023-04-25T09:07:17;101357.63;;;10.91;69.41
61119;BME280;51448;51.660;5.824;2023-04-25T09:09:48;101355.19;;;10.83;69.68
61119;BME280;51448;51.660;5.824;2023-04-25T09:12:21;101360.47;;;10.81;70.43
61119;BME280;51448;51.660;5.824;2023-04-25T09:15:09;101364.06;;;10.79;69.95
61119;BME280;51448;51.660;5.824;2023-04-25T09:17:58;101365.06;;;10.72;70.27
61119;BME280;51448;51.660;5.824;2023-04-25T09:20:41;101374.75;;;10.70;69.91
61119;BME280;51448;51.660;5.824;2023-04-25T09:23:14;101374.00;;;10.63;69.66
61119;BME280;51448;51.660;5.824;2023-04-25T09:25:42;101384.75;;;10.51;68.68
61119;BME280;51448;51.660;5.824;2023-04-25T09:28:10;101384.25;;;10.32;68.77
61119;BME280;51448;51.660;5.824;2023-04-25T09:30:38;101389.75;;;10.15;70.08
61119;BME280;51448;51.660;5.824;2023-04-25T09:33:27;101392.66;;;9.98;69.95
61119;BME280;51448;51.660;5.824;2023-04-25T09:36:03;101400.84;;;9.79;70.48
61119;BME280;51448;51.660;5.824;2023-04-25T09:38:48;101397.56;;;9.66;72.22
61119;BME280;51448;51.660;5.824;2023-04-25T09:41:37;101410.81;;;9.57;73.16
61119;BME280;51448;51.660;5.824;2023-04-25T09:44:06;101409.25;;;9.44;73.25
61119;BME280;51448;51.660;5.824;2023-04-25T09:46:37;101411.06;;;9.39;73.52
61119;BME280;51448;51.660;5.824;2023-04-25T09:49:10;101408.44;;;9.39;73.76
61119;BME280;51448;51.660;5.824;2023-04-25T09:51:56;101408.31;;;9.50;73.77
61119;BME280;51448;51.660;5.824;2023-04-25T09:55:00;101419.53;;;9.59;73.59
61119;BME280;51448;51.660;5.824;2023-04-25T09:57:33;101429.06;;;9.68;73.63
61119;BME280;51448;51.660;5.824;2023-04-25T10:00:02;101416.59;;;9.81;73.78
61119;BME280;51448;51.660;5.824;2023-04-25T10:02:46;101421.63;;;9.95;74.04
61119;BME280;51448;51.660;5.824;2023-04-25T10:05:35;101421.44;;;10.07;74.33
61119;BME280;51448;51.660;5.824;2023-04-25T10:08:06;101417.78;;;10.16;74.20
61119;BME280;51448;51.660;5.824;2023-04-25T10:10:34;101415.94;;;10.21;74.62
61119;BME280;51448;51.660;5.824;2023-04-25T10:13:04;101418.34;;;10.36;73.51
61119;BME280;51448;51.660;5.824;2023-04-25T10:15:35;101428.44;;;10.59;72.82
61119;BME280;51448;51.660;5.824;2023-04-25T10:18:06;101419.22;;;10.83;72.63
61119;BME280;51448;51.660;5.824;2023-04-25T10:20:34;101411.78;;;11.04;71.90
61119;BME280;51448;51.660;5.824;2023-04-25T10:23:13;101416.56;;;11.25;71.08
61119;BME280;51448;51.660;5.824;2023-04-25T10:25:43;101418.84;;;11.42;71.45
61119;BME280;51448;51.660;5.824;2023-04-25T10:28:11;101415.56;;;11.72;70.35
61119;BME280;51448;51.660;5.824;2023-04-25T10:31:00;101414.91;;;11.99;69.91
61119;BME280;51448;51.660;5.824;2023-04-25T10:33:32;101411.50;;;11.96;68.07
61119;BME280;51448;51.660;5.824;2023-04-25T10:38:45;101412.38;;;11.57;67.72
61119;BME280;51448;51.660;5.824;2023-04-25T10:41:14;101418.31;;;11.26;66.20
61119;BME280;51448;51.660;5.824;2023-04-25T10:43:43;101427.09;;;10.83;66.51
61119;BME280;51448;51.660;5.824;2023-04-25T10:46:21;101425.28;;;10.40;67.92
61119;BME280;51448;51.660;5.824;2023-04-25T10:48:55;101431.06;;;10.06;69.24
61119;BME280;51448;51.660;5.824;2023-04-25T10:54:09;101439.50;;;9.71;71.59
61119;BME280;51448;51.660;5.824;2023-04-25T10:56:41;101443.94;;;9.67;72.37
61119;BME280;51448;51.660;5.824;2023-04-25T10:59:17;101439.59;;;9.63;71.50
61119;BME280;51448;51.660;5.824;2023-04-25T11:01:56;101438.84;;;9.57;72.05
61119;BME280;51448;51.660;5.824;2023-04-25T11:04:30;101446.63;;;9.63;72.29
61119;BME280;51448;51.660;5.824;2023-04-25T11:07:10;101433.00;;;9.95;72.41
61119;BME280;51448;51.660;5.824;2023-04-25T11:09:50;101421.81;;;10.38;73.84
61119;BME280;51448;51.660;5.824;2023-04-25T11:12:18;101426.25;;;10.81;73.08
61119;BME280;51448;51.660;5.824;2023-04-25T11:14:45;101424.97;;;11.02;69.18
61119;BME280;51448;51.660;5.824;2023-04-25T11:17:16;101434.56;;;11.05;66.31
61119;BME280;51448;51.660;5.824;2023-04-25T11:19:43;101433.91;;;10.95;65.63
61119;BME280;51448;51.660;5.824;2023-04-25T11:22:11;101433.25;;;10.82;64.22
61119;BME280;51448;51.660;5.824;2023-04-25T11:24:39;101432.63;;;10.70;63.80
61119;BME280;51448;51.660;5.824;2023-04-25T11:27:08;101446.03;;;10.56;63.22
61119;BME280;51448;51.660;5.824;2023-04-25T11:29:35;101446.19;;;10.48;63.91
61119;BME280;51448;51.660;5.824;2023-04-25T11:32:03;101450.72;;;10.40;63.81
61119;BME280;51448;51.660;5.824;2023-04-25T11:34:32;101457.88;;;10.27;64.60
61119;BME280;51448;51.660;5.824;2023-04-25T11:37:01;101464.25;;;10.14;65.89
61119;BME280;51448;51.660;5.824;2023-04-25T11:39:30;101466.16;;;10.04;66.85
61119;BME280;51448;51.660;5.824;2023-04-25T11:41:58;101472.38;;;9.98;67.05
61119;BME280;51448;51.660;5.824;2023-04-25T11:44:27;101471.53;;;9.96;67.98
61119;BME280;51448;51.660;5.824;2023-04-25T11:46:55;101473.25;;;9.99;68.95
61119;BME280;51448;51.660;5.824;2023-04-25T11:49:23;101470.47;;;10.06;68.79
61119;BME280;51448;51.660;5.824;2023-04-25T11:51:52;101470.34;;;10.16;70.15
61119;BME280;51448;51.660;5.824;2023-04-25T11:54:19;101472.78;;;10.28;70.56
61119;BME280;51448;51.660;5.824;2023-04-25T11:56:47;101477.88;;;10.40;69.84
61119;BME280;51448;51.660;5.824;2023-04-25T11:59:15;101473.44;;;10.42;68.10
61119;BME280;51448;51.660;5.824;2023-04-25T12:01:50;101471.66;;;10.46;68.35
61119;BME280;51448;51.660;5.824;2023-04-25T12:04:22;101472.28;;;10.59;68.62
61119;BME280;51448;51.660;5.824;2023-04-25T12:06:53;101463.09;;;10.81;68.88
61119;BME280;51448;51.660;5.824;2023-04-25T12:09:30;101464.41;;;11.05;69.32
61119;BME280;51448;51.660;5.824;2023-04-25T12:11:59;101478.03;;;11.26;66.25
61119;BME280;51448;51.660;5.824;2023-04-25T12:14:33;101467.31;;;11.34;66.64
61119;BME280;51448;51.660;5.824;2023-04-25T12:17:03;101474.78;;;11.54;67.48
61119;BME280;51448;51.660;5.824;2023-04-25T12:19:34;101483.16;;;11.73;67.81
61119;BME280;51448;51.660;5.824;2023-04-25T12:22:07;101474.13;;;11.83;62.72
61119;BME280;51448;51.660;5.824;2023-04-25T12:24:47;101470.50;;;11.90;63.73
61119;BME280;51448;51.660;5.824;2023-04-25T12:27:16;101461.59;;;11.96;63.83
61119;BME280;51448;51.660;5.824;2023-04-25T12:29:53;101470.19;;;12.04;61.84
61119;BME280;51448;51.660;5.824;2023-04-25T12:32:23;101460.19;;;12.17;61.07
61119;BME280;51448;51.660;5.824;2023-04-25T12:34:51;101471.22;;;12.33;60.02
61119;BME280;51448;51.660;5.824;2023-04-25T12:37:19;101475.31;;;12.44;57.88
61119;BME280;51448;51.660;5.824;2023-04-25T12:39:46;101473.50;;;12.46;55.89
61119;BME280;51448;51.660;5.824;2023-04-25T12:42:14;101484.06;;;12.46;55.94
61119;BME280;51448;51.660;5.824;2023-04-25T12:44:42;101479.81;;;12.41;55.75
61119;BME280;51448;51.660;5.824;2023-04-25T12:47:10;101485.03;;;12.42;56.43
61119;BME280;51448;51.660;5.824;2023-04-25T12:49:37;101480.53;;;12.47;55.48
61119;BME280;51448;51.660;5.824;2023-04-25T12:52:05;101488.19;;;12.57;56.08
61119;BME280;51448;51.660;5.824;2023-04-25T12:54:33;101483.41;;;12.71;55.68
61119;BME280;51448;51.660;5.824;2023-04-25T12:57:01;101475.09;;;12.86;55.42
61119;BME280;51448;51.660;5.824;2023-04-25T12:59:30;101469.47;;;12.99;55.58
61119;BME280;51448;51.660;5.824;2023-04-25T13:01:57;101488.03;;;12.96;55.86
61119;BME280;51448;51.660;5.824;2023-04-25T13:04:25;101498.19;;;12.78;54.62
61119;BME280;51448;51.660;5.824;2023-04-25T13:06:53;101506.97;;;12.44;55.11
61119;BME280;51448;51.660;5.824;2023-04-25T13:09:20;101511.47;;;12.03;56.68
61119;BME280;51448;51.660;5.824;2023-04-25T13:11:48;101515.88;;;11.62;57.96
61119;BME280;51448;51.660;5.824;2023-04-25T13:14:16;101515.03;;;11.18;58.57
61119;BME280;51448;51.660;5.824;2023-04-25T13:16:43;101525.41;;;10.81;60.61
61119;BME280;51448;51.660;5.824;2023-04-25T13:19:11;101519.72;;;10.54;62.21
61119;BME280;51448;51.660;5.824;2023-04-25T13:21:39;101520.88;;;10.36;63.29
61119;BME280;51448;51.660;5.824;2023-04-25T13:24:06;101524.53;;;10.24;64.29